Time;durP1;ratioP1;P1;durP2;ratioP2;P2;SDS_P1;SDS_P2;PMS_P1;PMS_P2;Temp;Humidity;BMP_temperature;BMP_pressure;BME280_temperature;BME280_humidity;BME280_pressure;Samples;Min_cycle;Max_cycle;Signal;HPM_P1;HPM_P2
2022/04/14 00:01:34;;;;;;;452.65;127.80;;;;;;;;;;6092019;23;20029;-88
2022/04/14 00:04:00;;;;;;;462.98;129.90;;;;;;;;;;6117956;23;20002;-90
2022/04/14 00:06:26;;;;;;;425.30;120.95;;;;;;;;;;6118066;23;20014;-91
2022/04/14 00:08:52;;;;;;;429.45;122.28;;;;;;;;;;6092220;23;20013;-89
2022/04/14 00:11:19;;;;;;;439.17;123.80;;;;;;;;;;6092011;23;20002;-89
2022/04/14 00:13:45;;;;;;;416.90;120.03;;;;;;;;;;6092907;23;20017;-89
2022/04/14 00:16:11;;;;;;;476.67;132.10;;;;;;;;;;6092038;23;20002;-90
2022/04/14 00:18:37;;;;;;;422.52;121.28;;;;;;;;;;6092342;23;20209;-91
2022/04/14 00:21:03;;;;;;;414.35;119.22;;;;;;;;;;6091693;23;20039;-91
2022/04/14 00:23:29;;;;;;;396.05;116.72;;;;;;;;;;6117740;23;20434;-91
2022/04/14 00:25:55;;;;;;;430.77;124.05;;;;;;;;;;6117530;23;20438;-90
2022/04/14 00:28:21;;;;;;;385.27;113.63;;;;;;;;;;6118031;23;20006;-91
2022/04/14 00:30:47;;;;;;;383.05;113.05;;;;;;;;;;6092573;23;20006;-92
2022/04/14 00:33:14;;;;;;;389.15;114.07;;;;;;;;;;6118760;23;20071;-88
2022/04/14 00:35:40;;;;;;;381.00;112.03;;;;;;;;;;6117583;23;20292;-89
2022/04/14 00:38:06;;;;;;;385.00;112.88;;;;;;;;;;6117594;23;20077;-90
2022/04/14 00:40:32;;;;;;;386.40;113.75;;;;;;;;;;6117594;23;20014;-90
2022/04/14 00:42:58;;;;;;;366.48;109.78;;;;;;;;;;6117437;23;20002;-89
2022/04/14 00:45:27;;;;;;;392.08;114.90;;;;;;;;;;6091424;23;20500;-90
2022/04/14 00:47:53;;;;;;;383.98;112.95;;;;;;;;;;6091798;23;20013;-92
2022/04/14 00:50:20;;;;;;;387.73;113.82;;;;;;;;;;6091847;23;20009;-88
2022/04/14 00:52:47;;;;;;;393.23;114.70;;;;;;;;;;6118457;23;20071;-89
2022/04/14 00:55:14;;;;;;;400.65;116.63;;;;;;;;;;6091706;23;20052;-90
2022/04/14 00:57:40;;;;;;;388.23;112.82;;;;;;;;;;6091745;23;20187;-89
2022/04/14 01:00:06;;;;;;;382.70;112.40;;;;;;;;;;6091408;23;20006;-91
2022/04/14 01:02:33;;;;;;;374.73;110.80;;;;;;;;;;6117571;23;20013;-91
2022/04/14 01:04:59;;;;;;;370.23;110.28;;;;;;;;;;6091810;23;20006;-90
2022/04/14 01:07:26;;;;;;;368.40;109.10;;;;;;;;;;6091604;23;20041;-89
2022/04/14 01:09:53;;;;;;;343.50;104.15;;;;;;;;;;6117210;23;20109;-89
2022/04/14 01:12:19;;;;;;;341.40;104.15;;;;;;;;;;6092580;23;20079;-89
2022/04/14 01:14:46;;;;;;;355.40;106.75;;;;;;;;;;6117789;23;19998;-91
2022/04/14 01:17:12;;;;;;;357.02;106.97;;;;;;;;;;6117243;23;20014;-91
2022/04/14 01:19:39;;;;;;;322.67;99.38;;;;;;;;;;6091270;23;20014;-90
2022/04/14 01:22:11;;;;;;;341.90;105.50;;;;;;;;;;6117449;23;20009;-91
2022/04/14 01:24:37;;;;;;;332.20;102.20;;;;;;;;;;6118115;23;20029;-90
2022/04/14 01:27:04;;;;;;;372.90;110.95;;;;;;;;;;6118019;23;20021;-90
2022/04/14 01:29:30;;;;;;;327.38;101.50;;;;;;;;;;6118509;23;20326;-87
2022/04/14 01:31:58;;;;;;;339.25;103.00;;;;;;;;;;6092031;23;20018;-92
2022/04/14 01:34:24;;;;;;;349.60;105.22;;;;;;;;;;6118178;23;20069;-91
2022/04/14 01:36:50;;;;;;;342.10;103.53;;;;;;;;;;6119034;23;20343;-90
2022/04/14 01:39:16;;;;;;;351.35;105.55;;;;;;;;;;6118141;23;20002;-90
2022/04/14 01:41:43;;;;;;;327.13;100.75;;;;;;;;;;6092228;23;20304;-90
2022/04/14 01:44:10;;;;;;;329.92;101.80;;;;;;;;;;6118457;23;20005;-89
2022/04/14 01:46:37;;;;;;;341.55;104.65;;;;;;;;;;6092427;23;20010;-90
2022/04/14 01:49:03;;;;;;;344.88;105.28;;;;;;;;;;6092641;23;20006;-92
2022/04/14 01:51:30;;;;;;;374.33;111.40;;;;;;;;;;6118588;23;20001;-92
2022/04/14 01:53:56;;;;;;;366.42;109.45;;;;;;;;;;6092611;23;20423;-91
2022/04/14 01:56:22;;;;;;;382.95;113.18;;;;;;;;;;6093272;23;20010;-91
2022/04/14 01:58:55;;;;;;;395.15;115.90;;;;;;;;;;6093550;23;20450;-92
2022/04/14 02:01:24;;;;;;;386.42;113.63;;;;;;;;;;6093717;23;20010;-91
2022/04/14 02:03:50;;;;;;;394.23;115.13;;;;;;;;;;6093718;23;20002;-91
2022/04/14 02:06:16;;;;;;;395.65;116.13;;;;;;;;;;6118258;23;20351;-92
2022/04/14 02:08:43;;;;;;;416.30;121.57;;;;;;;;;;6092508;23;20006;-92
2022/04/14 02:11:29;;;;;;;426.23;123.93;;;;;;;;;;6093102;23;20451;-93
2022/04/14 02:14:05;;;;;;;436.23;125.00;;;;;;;;;;6093242;23;20006;-92
2022/04/14 02:16:36;;;;;;;407.17;119.05;;;;;;;;;;6118805;23;20012;-94
2022/04/14 02:19:09;;;;;;;437.15;124.88;;;;;;;;;;6092775;23;20002;-93
2022/04/14 02:21:38;;;;;;;447.52;128.55;;;;;;;;;;6119209;23;20033;-92
2022/04/14 02:24:04;;;;;;;;;;;;;;;;;;6093357;23;20346;-92
2022/04/14 02:26:51;;;;;;;;;;;;;;;;;;;;;
2022/04/14 02:29:17;;;;;;;427.77;123.93;;;;;;;;;;6119283;23;20092;-92
2022/04/14 02:31:53;;;;;;;;;;;;;;;;;;;;;
2022/04/14 02:34:20;;;;;;;443.23;127.30;;;;;;;;;;6118733;23;20090;-90
2022/04/14 02:36:48;;;;;;;431.05;124.65;;;;;;;;;;6118393;23;20006;-95
2022/04/14 02:39:19;;;;;;;436.08;125.88;;;;;;;;;;6092922;23;20006;-94
2022/04/14 02:41:45;;;;;;;448.30;128.43;;;;;;;;;;6093093;23;20040;-96
2022/04/14 02:44:14;;;;;;;449.00;128.40;;;;;;;;;;6092959;23;20342;-92
2022/04/14 02:46:42;;;;;;;435.60;125.80;;;;;;;;;;6093066;23;20017;-95
2022/04/14 02:49:21;;;;;;;;;;;;;;;;;;;;;
2022/04/14 02:55:25;;;;;;;462.20;131.05;;;;;;;;;;6180796;23;20096;-92
2022/04/14 02:58:46;;;;;;;465.83;132.93;;;;;;;;;;6175024;23;20016;-92
2022/04/14 03:00:52;;;;;;;466.48;132.48;;;;;;;;;;6167917;23;20002;-92
2022/04/14 03:03:19;;;;;;;451.73;129.55;;;;;;;;;;6179460;23;20016;-90
2022/04/14 03:05:46;;;;;;;451.98;131.85;;;;;;;;;;6152326;23;20040;-90
2022/04/14 03:08:12;;;;;;;477.30;136.48;;;;;;;;;;6091860;23;20079;-88
2022/04/14 03:10:38;;;;;;;460.38;132.02;;;;;;;;;;6091869;23;20006;-90
2022/04/14 03:13:04;;;;;;;458.73;130.38;;;;;;;;;;6117415;23;19998;-91
2022/04/14 03:15:30;;;;;;;465.20;132.02;;;;;;;;;;6117512;23;20002;-90
2022/04/14 03:17:57;;;;;;;438.58;126.45;;;;;;;;;;6092955;23;20006;-90
2022/04/14 03:20:23;;;;;;;461.05;131.43;;;;;;;;;;6092292;23;20026;-89
2022/04/14 03:22:49;;;;;;;438.13;126.18;;;;;;;;;;6117790;23;20063;-90
2022/04/14 03:25:15;;;;;;;459.50;132.10;;;;;;;;;;6091669;23;20456;-88
2022/04/14 03:27:42;;;;;;;470.38;134.13;;;;;;;;;;6091676;23;20152;-89
2022/04/14 03:30:11;;;;;;;443.55;128.65;;;;;;;;;;6117374;23;20048;-91
2022/04/14 03:32:43;;;;;;;461.92;131.85;;;;;;;;;;6091906;23;20018;-90
2022/04/14 03:35:10;;;;;;;498.13;140.75;;;;;;;;;;6092542;23;20009;-91
2022/04/14 03:37:36;;;;;;;516.72;145.90;;;;;;;;;;6092176;23;20017;-92
2022/04/14 03:40:05;;;;;;;474.13;135.32;;;;;;;;;;6118153;23;20077;-91
2022/04/14 03:42:31;;;;;;;479.63;136.80;;;;;;;;;;6091967;23;20357;-92
2022/04/14 03:45:00;;;;;;;479.25;136.20;;;;;;;;;;6092694;23;20013;-91
2022/04/14 03:47:26;;;;;;;468.83;133.85;;;;;;;;;;6093335;23;20018;-92
2022/04/14 04:12:44;;;;;;;455.88;135.55;;;;;;;;;;5849839;24;20017;-93
2022/04/14 06:02:33;;;;;;;;;;;;;;;;;;;;;
2022/04/14 06:48:50;;;;;;;275.95;91.63;;;;;;;;;;5790530;24;20019;-90
2022/04/14 06:58:19;;;;;;;300.38;97.30;;;;;;;;;;5854596;24;20393;-92
2022/04/14 07:03:51;;;;;;;293.08;95.47;;;;;;;;;;5964601;24;20027;-90
2022/04/14 07:06:47;;;;;;;;;;;;;;;;;;;;;
2022/04/14 07:09:53;;;;;;;;;;;;;;;;;;;;;
2022/04/14 07:47:05;;;;;;;191.02;69.53;;;;;;;;;;5709752;25;20016;-90
2022/04/14 07:49:41;;;;;;;176.10;66.93;;;;;;;;;;5757565;24;20233;-91
2022/04/14 07:52:27;;;;;;;225.73;77.43;;;;;;;;;;5843658;24;20013;-91
2022/04/14 07:55:08;;;;;;;;;;;;;;;;;;;;;
2022/04/14 07:58:11;;;;;;;;;;;;;;;;;;;;;
2022/04/14 08:01:09;;;;;;;;;;;;;;;;;;;;;
2022/04/14 08:03:38;;;;;;;245.32;81.85;;;;;;;;;;6163966;23;20087;-91
2022/04/14 08:06:35;;;;;;;;;;;;;;;;;;;;;
2022/04/14 08:09:11;;;;;;;228.15;78.15;;;;;;;;;;6169030;22;20061;-94
2022/04/14 08:11:37;;;;;;;230.95;78.47;;;;;;;;;;6246007;22;20444;-91
2022/04/14 08:14:05;;;;;;;255.68;83.28;;;;;;;;;;6245800;22;20256;-91
2022/04/14 08:16:31;;;;;;;;;;;;;;;;;;6245217;22;20003;-88
2022/04/14 08:19:02;;;;;;;294.83;91.60;;;;;;;;;;6244502;22;20395;-90
2022/04/14 08:24:38;;;;;;;303.08;93.90;;;;;;;;;;6116888;23;20511;-91
2022/04/14 08:27:06;;;;;;;256.45;84.25;;;;;;;;;;6223733;22;20007;-93
2022/04/14 08:33:08;;;;;;;220.27;75.80;;;;;;;;;;6210456;22;20027;-90
2022/04/14 08:36:03;;;;;;;212.82;74.50;;;;;;;;;;6231393;22;20000;-91
2022/04/14 08:39:00;;;;;;;;;;;;;;;;;;;;;
2022/04/14 08:41:40;;;;;;;167.07;65.32;;;;;;;;;;6272274;22;20086;-90
2022/04/14 08:44:25;;;;;;;138.25;57.42;;;;;;;;;;6244675;22;20086;-90
2022/04/14 08:49:59;;;;;;;;;;;;;;;;;;;;;
2022/04/14 08:52:31;;;;;;;115.65;52.40;;;;;;;;;;6271777;22;20103;-92
2022/04/14 08:54:57;;;;;;;151.93;62.45;;;;;;;;;;6244600;22;20000;-92
2022/04/14 08:57:24;;;;;;;138.75;58.47;;;;;;;;;;6270970;22;20003;-89
2022/04/14 08:59:53;;;;;;;124.57;53.92;;;;;;;;;;6243088;22;20031;-89
2022/04/14 09:02:37;;;;;;;38.67;22.48;;;;;;;;;;6270801;22;20096;-89
2022/04/14 09:05:30;;;;;;;37.78;25.13;;;;;;;;;;6244485;22;20289;-90
2022/04/14 09:07:56;;;;;;;46.70;20.77;;;;;;;;;;6244297;22;20004;-90
2022/04/14 09:10:25;;;;;;;30.73;18.33;;;;;;;;;;6271016;22;20007;-90
2022/04/14 09:12:59;;;;;;;30.38;19.25;;;;;;;;;;6243253;22;20003;-91
2022/04/14 09:15:34;;;;;;;47.90;29.35;;;;;;;;;;6270781;22;19996;-91
2022/04/14 09:18:23;;;;;;;31.58;17.25;;;;;;;;;;6270991;22;20379;-90
2022/04/14 09:21:03;;;;;;;35.10;20.63;;;;;;;;;;6271458;22;20018;-91
2022/04/14 09:24:00;;;;;;;;;;;;;;;;;;;;;
2022/04/14 09:26:26;;;;;;;36.70;19.17;;;;;;;;;;6262248;22;20007;-92
2022/04/14 09:29:25;;;;;;;19.80;11.32;;;;;;;;;;6270715;22;20417;-91
2022/04/14 09:32:04;;;;;;;;;;;;;;;;;;;;;
2022/04/14 09:40:53;;;;;;;;;;;;;;;;;;;;;
2022/04/14 09:59:14;;;;;;;18.42;10.98;;;;;;;;;;5879164;24;20086;-89
2022/04/14 10:01:40;;;;;;;11.50;6.90;;;;;;;;;;5993945;23;20388;-89
2022/04/14 10:04:07;;;;;;;14.15;7.05;;;;;;;;;;6144853;22;20018;-89
2022/04/14 10:06:33;;;;;;;16.17;7.88;;;;;;;;;;6273530;22;20033;-88
2022/04/14 10:08:59;;;;;;;13.00;7.90;;;;;;;;;;6272421;22;20018;-89
2022/04/14 10:11:28;;;;;;;15.45;6.95;;;;;;;;;;6272736;22;19999;-88
2022/04/14 10:13:54;;;;;;;15.02;8.80;;;;;;;;;;6271504;22;20000;-88
2022/04/14 10:16:21;;;;;;;14.57;7.05;;;;;;;;;;6272221;22;20004;-87
2022/04/14 10:18:47;;;;;;;16.27;5.27;;;;;;;;;;6272970;22;20475;-89
2022/04/14 10:21:14;;;;;;;9.25;4.45;;;;;;;;;;6246447;22;20590;-89
2022/04/14 10:23:41;;;;;;;11.02;5.78;;;;;;;;;;6245430;22;20344;-90
2022/04/14 10:26:08;;;;;;;10.35;5.22;;;;;;;;;;6272660;22;20494;-88
2022/04/14 10:28:35;;;;;;;12.90;6.82;;;;;;;;;;6244377;22;20000;-88
2022/04/14 10:31:02;;;;;;;14.90;6.30;;;;;;;;;;6272371;22;20004;-88
2022/04/14 10:33:28;;;;;;;12.23;6.13;;;;;;;;;;6245249;22;20011;-92
2022/04/14 10:35:55;;;;;;;11.30;6.00;;;;;;;;;;6273485;22;19996;-91
2022/04/14 10:38:28;;;;;;;11.60;5.70;;;;;;;;;;6271928;22;20084;-92
2022/04/14 10:40:59;;;;;;;9.80;5.00;;;;;;;;;;6272698;22;20015;-92
2022/04/14 10:43:26;;;;;;;13.18;6.60;;;;;;;;;;6244621;22;20486;-90
2022/04/14 10:46:16;;;;;;;13.82;5.95;;;;;;;;;;6245278;22;20074;-91
2022/04/14 10:48:43;;;;;;;8.82;4.63;;;;;;;;;;6250479;22;20000;-89
2022/04/14 10:51:27;;;;;;;6.15;3.83;;;;;;;;;;6244017;22;20519;-91
2022/04/14 10:54:03;;;;;;;10.45;5.07;;;;;;;;;;6243918;22;20087;-91
2022/04/14 10:56:44;;;;;;;9.90;5.60;;;;;;;;;;6244356;22;20341;-85
2022/04/14 10:59:14;;;;;;;12.13;3.95;;;;;;;;;;6271252;22;19999;-89
2022/04/14 11:01:52;;;;;;;4.90;2.97;;;;;;;;;;6271739;22;20014;-91
2022/04/14 11:04:26;;;;;;;6.82;3.13;;;;;;;;;;6244913;22;20018;-88
2022/04/14 11:07:01;;;;;;;10.80;4.20;;;;;;;;;;6244940;22;20004;-89
2022/04/14 11:09:42;;;;;;;7.22;4.03;;;;;;;;;;6272291;22;20306;-89
2022/04/14 11:12:10;;;;;;;7.93;2.60;;;;;;;;;;6244044;22;20011;-89
2022/04/14 11:14:37;;;;;;;10.23;3.57;;;;;;;;;;6272093;22;19996;-89
2022/04/14 11:17:03;;;;;;;9.18;3.85;;;;;;;;;;6244506;22;20134;-88
2022/04/14 11:19:30;;;;;;;6.75;3.75;;;;;;;;;;6244444;22;20031;-89
2022/04/14 11:24:40;;;;;;;6.72;2.88;;;;;;;;;;6272054;22;20031;-91
2022/04/14 11:27:25;;;;;;;10.23;3.58;;;;;;;;;;6243923;22;20039;-88
2022/04/14 11:30:03;;;;;;;4.38;2.33;;;;;;;;;;6244853;22;20035;-89
2022/04/14 11:32:39;;;;;;;4.70;2.78;;;;;;;;;;6244863;22;20444;-88
2022/04/14 11:35:18;;;;;;;6.00;3.13;;;;;;;;;;6243308;22;20003;-88
2022/04/14 11:37:45;;;;;;;4.40;2.42;;;;;;;;;;6272918;22;20004;-89
2022/04/14 11:40:18;;;;;;;6.93;2.65;;;;;;;;;;6245266;22;20014;-91
2022/04/14 11:42:49;;;;;;;5.18;2.05;;;;;;;;;;6246235;22;20016;-89
2022/04/14 11:45:21;;;;;;;6.55;2.13;;;;;;;;;;6272783;22;20433;-88
2022/04/14 11:47:47;;;;;;;3.50;1.60;;;;;;;;;;6273878;22;20049;-85
2022/04/14 11:50:13;;;;;;;6.38;1.83;;;;;;;;;;6272915;22;20008;-87
2022/04/14 11:52:41;;;;;;;5.50;2.03;;;;;;;;;;6273142;22;20575;-86
2022/04/14 11:55:07;;;;;;;7.68;3.30;;;;;;;;;;6271655;22;20000;-85
2022/04/14 11:57:37;;;;;;;4.90;2.42;;;;;;;;;;6272796;22;20004;-84
2022/04/14 12:00:10;;;;;;;5.25;2.80;;;;;;;;;;6223458;22;20015;-86
2022/04/14 12:02:37;;;;;;;3.90;2.53;;;;;;;;;;6272292;22;20011;-86
2022/04/14 12:05:03;;;;;;;7.72;3.78;;;;;;;;;;6273003;22;20061;-84
2022/04/14 12:07:34;;;;;;;6.25;2.63;;;;;;;;;;6272433;22;20012;-86
2022/04/14 12:10:09;;;;;;;3.83;2.58;;;;;;;;;;6271882;22;20045;-86
2022/04/14 12:12:37;;;;;;;6.65;2.78;;;;;;;;;;6273896;22;19995;-85
2022/04/14 12:15:04;;;;;;;5.60;2.97;;;;;;;;;;6247079;22;20094;-85
2022/04/14 12:17:31;;;;;;;4.13;2.47;;;;;;;;;;6272484;22;20003;-85
2022/04/14 12:19:58;;;;;;;4.18;2.17;;;;;;;;;;6272548;22;20004;-86
2022/04/14 12:22:26;;;;;;;3.60;1.97;;;;;;;;;;6272873;22;20513;-89
2022/04/14 12:24:53;;;;;;;4.07;1.63;;;;;;;;;;6272157;22;19995;-86
2022/04/14 12:27:23;;;;;;;1.38;1.27;;;;;;;;;;6273843;22;20033;-86
2022/04/14 12:30:13;;;;;;;3.00;1.40;;;;;;;;;;6272996;22;20317;-86
2022/04/14 12:32:39;;;;;;;15.23;3.78;;;;;;;;;;6154035;23;20446;-86
2022/04/14 12:35:08;;;;;;;5.10;3.28;;;;;;;;;;6179675;23;20080;-86
2022/04/14 12:37:35;;;;;;;2.65;1.95;;;;;;;;;;6181689;23;20012;-86
2022/04/14 12:40:03;;;;;;;6.05;2.65;;;;;;;;;;6179663;23;20016;-87
2022/04/14 12:42:29;;;;;;;;;;;;;;;;;;6181892;23;20021;-85
2022/04/14 12:45:01;;;;;;;7.38;2.60;;;;;;;;;;6156327;23;19900;-85
2022/04/14 12:47:29;;;;;;;3.75;2.30;;;;;;;;;;6181286;23;20382;-87
2022/04/14 12:49:55;;;;;;;4.22;2.00;;;;;;;;;;6181154;23;20152;-88
2022/04/14 12:52:22;;;;;;;3.05;1.63;;;;;;;;;;6180074;23;20005;-86
2022/04/14 12:54:49;;;;;;;1.50;1.10;;;;;;;;;;6154664;23;20020;-86
2022/04/14 12:57:19;;;;;;;2.63;1.20;;;;;;;;;;6179206;23;20374;-87
2022/04/14 13:00:05;;;;;;;2.80;1.30;;;;;;;;;;6185064;23;20001;-86
2022/04/14 13:02:31;;;;;;;2.42;1.50;;;;;;;;;;6186504;22;20017;-88
2022/04/14 13:05:14;;;;;;;2.92;1.08;;;;;;;;;;6274533;22;20004;-85
2022/04/14 13:07:50;;;;;;;2.05;1.38;;;;;;;;;;6276394;22;20000;-88
2022/04/14 13:10:29;;;;;;;3.30;1.13;;;;;;;;;;6273076;22;20007;-89
2022/04/14 13:12:56;;;;;;;3.40;1.35;;;;;;;;;;6274851;22;20003;-87
2022/04/14 13:15:23;;;;;;;3.78;1.02;;;;;;;;;;6272941;22;20027;-89
2022/04/14 13:17:50;;;;;;;1.10;0.87;;;;;;;;;;6275001;22;20387;-87
2022/04/14 13:20:20;;;;;;;4.45;1.13;;;;;;;;;;6274795;22;20332;-93
2022/04/14 13:22:51;;;;;;;2.15;1.00;;;;;;;;;;6273958;22;20015;-90
2022/04/14 13:25:18;;;;;;;1.75;1.00;;;;;;;;;;6276487;22;20436;-88
2022/04/14 13:27:44;;;;;;;1.95;1.02;;;;;;;;;;6249773;22;20312;-87
2022/04/14 13:30:10;;;;;;;2.75;1.27;;;;;;;;;;6275893;22;20019;-87
2022/04/14 13:32:36;;;;;;;2.10;1.55;;;;;;;;;;6275886;22;20118;-88
2022/04/14 13:35:03;;;;;;;3.85;1.10;;;;;;;;;;6248212;22;20034;-86
2022/04/14 13:37:32;;;;;;;3.78;1.40;;;;;;;;;;6246197;22;20008;-87
2022/04/14 13:39:59;;;;;;;3.95;1.67;;;;;;;;;;6275172;22;20003;-90
2022/04/14 13:42:25;;;;;;;3.00;1.30;;;;;;;;;;6276728;22;20011;-86
2022/04/14 13:44:51;;;;;;;2.05;0.88;;;;;;;;;;6275035;22;20000;-86
2022/04/14 13:47:18;;;;;;;2.40;1.35;;;;;;;;;;6280175;22;20010;-87
2022/04/14 13:49:44;;;;;;;6.47;3.67;;;;;;;;;;6249264;22;20003;-86
2022/04/14 13:52:10;;;;;;;5.03;2.92;;;;;;;;;;6276806;22;19999;-88
2022/04/14 13:54:36;;;;;;;8.93;2.75;;;;;;;;;;6274540;22;20006;-86
2022/04/14 13:57:02;;;;;;;5.32;2.95;;;;;;;;;;6273420;22;20066;-87
2022/04/14 13:59:29;;;;;;;3.25;2.03;;;;;;;;;;6273918;22;20011;-88
2022/04/14 14:01:56;;;;;;;4.22;2.63;;;;;;;;;;6275157;22;20007;-88
2022/04/14 14:04:23;;;;;;;4.72;2.75;;;;;;;;;;6274821;22;20003;-86
2022/04/14 14:06:49;;;;;;;8.38;3.65;;;;;;;;;;6247780;22;20004;-89
2022/04/14 14:09:15;;;;;;;4.63;1.50;;;;;;;;;;6273701;22;20041;-89
2022/04/14 14:11:41;;;;;;;1.85;1.10;;;;;;;;;;6273576;22;20000;-86
2022/04/14 14:14:09;;;;;;;4.45;1.30;;;;;;;;;;6273889;22;20314;-86
2022/04/14 14:16:35;;;;;;;2.97;1.38;;;;;;;;;;6246377;22;20044;-90
2022/04/14 14:19:01;;;;;;;2.50;1.27;;;;;;;;;;6273238;22;20006;-87
2022/04/14 14:21:27;;;;;;;2.10;1.50;;;;;;;;;;6274585;22;20008;-86
2022/04/14 14:23:54;;;;;;;3.17;1.83;;;;;;;;;;6274704;22;20321;-89
2022/04/14 14:26:20;;;;;;;4.15;2.13;;;;;;;;;;6272546;22;20008;-88
2022/04/14 14:28:46;;;;;;;5.47;3.30;;;;;;;;;;6273264;22;20023;-87
2022/04/14 14:31:14;;;;;;;5.50;3.05;;;;;;;;;;6273600;22;20000;-88
2022/04/14 14:33:41;;;;;;;4.70;2.72;;;;;;;;;;6245607;22;20379;-86
2022/04/14 14:36:07;;;;;;;6.07;2.78;;;;;;;;;;6273912;22;20444;-87
2022/04/14 14:38:33;;;;;;;5.05;2.65;;;;;;;;;;6273480;22;20000;-86
2022/04/14 14:41:01;;;;;;;1.70;1.60;;;;;;;;;;6273189;22;20012;-89
2022/04/14 14:43:27;;;;;;;;;;;;;;;;;;6274445;22;20000;-89
2022/04/14 14:45:53;;;;;;;8.80;2.42;;;;;;;;;;6246106;22;19899;-87
2022/04/14 14:48:19;;;;;;;4.72;2.08;;;;;;;;;;6272698;22;20008;-90
2022/04/14 14:50:45;;;;;;;8.80;4.05;;;;;;;;;;6246172;22;20004;-86
2022/04/14 14:53:12;;;;;;;10.48;4.43;;;;;;;;;;6272856;22;19999;-86
2022/04/14 14:55:39;;;;;;;5.47;2.60;;;;;;;;;;6272626;22;20004;-86
2022/04/14 15:00:51;;;;;;;3.15;1.88;;;;;;;;;;6272521;22;20103;-87
2022/04/14 15:03:17;;;;;;;6.40;2.88;;;;;;;;;;6274011;22;20011;-89
2022/04/14 15:05:43;;;;;;;4.75;3.03;;;;;;;;;;6273581;22;20003;-90
2022/04/14 15:08:09;;;;;;;5.47;2.78;;;;;;;;;;6274012;22;20004;-85
2022/04/14 15:10:36;;;;;;;2.20;1.65;;;;;;;;;;6273701;22;20000;-91
2022/04/14 15:13:04;;;;;;;4.07;1.35;;;;;;;;;;6272238;22;19995;-88
2022/04/14 15:15:30;;;;;;;2.85;1.10;;;;;;;;;;6273967;22;20007;-86
2022/04/14 15:17:58;;;;;;;2.33;1.20;;;;;;;;;;6247468;22;20050;-84
2022/04/14 15:20:29;;;;;;;1.80;1.20;;;;;;;;;;6273242;22;19999;-91
2022/04/14 15:23:00;;;;;;;4.90;1.42;;;;;;;;;;6244585;22;20420;-90
2022/04/14 15:25:26;;;;;;;1.13;1.00;;;;;;;;;;6272189;22;20059;-90
2022/04/14 15:27:52;;;;;;;1.80;1.05;;;;;;;;;;6244283;22;20008;-89
2022/04/14 15:30:18;;;;;;;2.90;1.85;;;;;;;;;;6271213;22;20075;-90
2022/04/14 15:32:44;;;;;;;9.27;2.05;;;;;;;;;;6270738;22;20026;-87
2022/04/14 15:35:11;;;;;;;3.22;1.70;;;;;;;;;;6272383;22;20095;-90
2022/04/14 15:37:47;;;;;;;2.00;1.50;;;;;;;;;;6273014;22;20020;-91
2022/04/14 15:43:20;;;;;;;2.27;1.57;;;;;;;;;;6193972;22;20043;-92
2022/04/14 15:45:55;;;;;;;5.22;2.95;;;;;;;;;;6272411;22;20003;-92
2022/04/14 15:48:22;;;;;;;2.17;1.55;;;;;;;;;;6246490;22;20738;-87
2022/04/14 15:50:50;;;;;;;4.45;2.75;;;;;;;;;;6273260;22;20600;-92
2022/04/14 15:56:38;;;;;;;3.67;2.13;;;;;;;;;;6256680;22;20345;-92
2022/04/14 16:02:00;;;;;;;3.38;1.60;;;;;;;;;;6210201;22;20020;-92
2022/04/14 16:04:26;;;;;;;1.98;1.58;;;;;;;;;;6274259;22;20011;-91
2022/04/14 16:06:52;;;;;;;2.42;1.15;;;;;;;;;;6272802;22;20015;-90
2022/04/14 16:09:18;;;;;;;2.28;1.45;;;;;;;;;;6271019;22;20006;-91
2022/04/14 16:12:03;;;;;;;4.10;1.20;;;;;;;;;;6271245;22;20490;-91
2022/04/14 16:14:29;;;;;;;1.67;1.02;;;;;;;;;;6272664;22;20058;-89
2022/04/14 16:16:55;;;;;;;1.80;1.10;;;;;;;;;;6244838;22;20030;-90
2022/04/14 16:19:21;;;;;;;3.90;1.70;;;;;;;;;;6272097;22;20014;-91
2022/04/14 16:21:47;;;;;;;3.65;1.73;;;;;;;;;;6272462;22;20011;-92
2022/04/14 16:24:16;;;;;;;1.98;1.33;;;;;;;;;;6272015;22;20070;-91
2022/04/14 16:26:47;;;;;;;2.35;1.20;;;;;;;;;;6272035;22;20373;-91
2022/04/14 16:29:14;;;;;;;3.88;1.95;;;;;;;;;;6271724;22;20003;-92
2022/04/14 16:31:40;;;;;;;5.88;2.08;;;;;;;;;;6271842;22;20007;-91
2022/04/14 16:34:06;;;;;;;4.40;1.30;;;;;;;;;;6271299;22;20023;-91
2022/04/14 16:36:32;;;;;;;3.17;1.10;;;;;;;;;;6245086;22;20444;-91
2022/04/14 16:38:59;;;;;;;5.10;1.38;;;;;;;;;;6245277;22;19995;-91
2022/04/14 16:41:25;;;;;;;4.38;1.42;;;;;;;;;;6271726;22;20011;-91
2022/04/14 16:43:51;;;;;;;3.17;1.73;;;;;;;;;;6244428;22;20498;-91
2022/04/14 16:46:17;;;;;;;1.90;1.08;;;;;;;;;;6244620;22;20043;-90
2022/04/14 16:48:43;;;;;;;3.17;0.90;;;;;;;;;;6272109;22;20060;-91
2022/04/14 16:51:10;;;;;;;2.00;1.05;;;;;;;;;;6244938;22;19999;-91
2022/04/14 16:53:37;;;;;;;12.38;1.30;;;;;;;;;;6271672;22;20018;-90
2022/04/14 16:56:06;;;;;;;3.88;1.30;;;;;;;;;;6272550;22;20458;-91
2022/04/14 16:58:34;;;;;;;2.22;1.13;;;;;;;;;;6272534;22;20003;-90
2022/04/14 17:01:00;;;;;;;;;;;;;;;;;;6273273;22;20008;-90
2022/04/14 17:03:26;;;;;;;3.40;1.60;;;;;;;;;;6244655;22;19973;-91
2022/04/14 17:05:52;;;;;;;4.13;2.10;;;;;;;;;;6244573;22;20011;-91
2022/04/14 17:08:18;;;;;;;4.68;2.38;;;;;;;;;;6271383;22;20004;-90
2022/04/14 17:10:44;;;;;;;3.88;2.10;;;;;;;;;;6271248;22;20018;-90
2022/04/14 17:13:11;;;;;;;4.40;2.25;;;;;;;;;;6271693;22;20035;-90
2022/04/14 17:15:41;;;;;;;4.68;2.22;;;;;;;;;;6244593;22;20087;-91
2022/04/14 17:18:07;;;;;;;6.93;3.47;;;;;;;;;;6244579;22;20008;-91
2022/04/14 17:20:33;;;;;;;9.25;5.07;;;;;;;;;;6272433;22;20336;-90
2022/04/14 17:25:44;;;;;;;17.33;9.57;;;;;;;;;;6281996;22;20018;-90
2022/04/14 17:28:10;;;;;;;12.27;6.75;;;;;;;;;;6244643;22;20464;-91
2022/04/14 17:30:39;;;;;;;11.43;5.47;;;;;;;;;;6245339;22;20087;-91
2022/04/14 17:33:05;;;;;;;10.90;3.58;;;;;;;;;;6245110;22;20004;-91
2022/04/14 17:35:31;;;;;;;7.22;2.97;;;;;;;;;;6271469;22;20325;-91
2022/04/14 17:37:57;;;;;;;5.20;2.78;;;;;;;;;;6244676;22;20448;-91
2022/04/14 17:40:23;;;;;;;6.78;3.38;;;;;;;;;;6245278;22;20004;-92
2022/04/14 17:42:49;;;;;;;7.30;3.85;;;;;;;;;;6271746;22;20014;-91
2022/04/14 17:45:16;;;;;;;4.28;2.17;;;;;;;;;;6244802;22;20006;-92
2022/04/14 17:47:43;;;;;;;5.45;2.65;;;;;;;;;;6271712;22;20008;-92
2022/04/14 17:50:12;;;;;;;4.05;1.20;;;24.30;56.50;;;;;;6271420;22;20003;-92
2022/04/14 17:52:38;;;;;;;2.25;1.42;;;24.20;57.00;;;;;;6271344;22;20005;-91
2022/04/14 17:55:08;;;;;;;2.78;1.52;;;24.10;56.90;;;;;;6272720;22;20000;-91
2022/04/14 17:57:35;;;;;;;2.88;1.50;;;24.00;55.90;;;;;;6245083;22;20011;-91
2022/04/14 18:00:02;;;;;;;1.42;1.10;;;23.70;54.70;;;;;;6244650;22;20028;-92
2022/04/14 18:02:30;;;;;;;4.03;1.98;;;23.40;55.40;;;;;;6271525;22;20027;-91
2022/04/14 18:04:56;;;;;;;4.00;2.22;;;23.20;57.30;;;;;;6271393;22;20004;-90
2022/04/14 18:07:22;;;;;;;4.75;2.38;;;22.90;57.30;;;;;;6244678;22;20004;-91
2022/04/14 18:09:47;;;;;;;5.93;2.58;;;22.50;57.60;;;;;;6246348;22;20006;-93
2022/04/14 18:12:13;;;;;;;2.35;1.60;;;22.20;59.50;;;;;;6273045;22;20067;-91
2022/04/14 18:14:39;;;;;;;4.88;1.95;;;21.90;61.50;;;;;;6273684;22;20003;-89
2022/04/14 18:17:05;;;;;;;3.88;1.95;;;21.60;61.70;;;;;;6273906;22;20440;-91
2022/04/14 18:19:30;;;;;;;6.72;3.20;;;21.20;60.70;;;;;;6272903;22;20004;-93
2022/04/14 18:21:56;;;;;;;11.50;5.80;;;20.90;62.40;;;;;;6245448;22;20338;-92
2022/04/14 18:24:22;;;;;;;7.82;3.95;;;20.60;62.20;;;;;;6245508;22;20082;-92
2022/04/14 18:26:48;;;;;;;10.43;5.07;;;20.40;64.30;;;;;;6272746;22;20025;-90
2022/04/14 18:29:13;;;;;;;13.23;7.18;;;20.20;63.90;;;;;;6245332;22;20000;-90
2022/04/14 18:31:39;;;;;;;5.38;3.05;;;19.90;66.70;;;;;;6272907;22;20083;-90
2022/04/14 18:34:06;;;;;;;7.68;3.55;;;19.70;65.70;;;;;;6246452;22;20456;-91
2022/04/14 18:36:32;;;;;;;7.50;4.20;;;19.60;69.30;;;;;;6272975;22;20071;-92
2022/04/14 18:38:57;;;;;;;7.68;3.42;;;19.40;70.20;;;;;;6272963;22;20384;-92
2022/04/14 18:41:23;;;;;;;6.85;3.38;;;19.30;70.50;;;;;;6272459;22;20011;-90
2022/04/14 18:43:49;;;;;;;8.73;4.90;;;19.20;72.30;;;;;;6273215;22;20010;-90
2022/04/14 18:46:14;;;;;;;9.77;4.13;;;19.10;73.20;;;;;;6272836;22;20446;-89
2022/04/14 18:48:41;;;;;;;3.50;2.25;;;18.90;72.30;;;;;;6273568;22;20353;-92
2022/04/14 18:51:08;;;;;;;2.85;2.28;;;18.90;73.60;;;;;;6246765;22;20341;-90
2022/04/14 18:53:34;;;;;;;7.05;4.22;;;18.70;74.10;;;;;;6246127;22;20003;-89
2022/04/14 18:56:00;;;;;;;16.63;7.88;;;18.60;77.50;;;;;;6272425;22;20121;-91
2022/04/14 18:58:26;;;;;;;16.52;9.23;;;18.50;75.50;;;;;;6272662;22;20078;-91
2022/04/14 19:00:51;;;;;;;16.75;9.18;;;18.40;75.00;;;;;;6273138;22;20137;-90
2022/04/14 19:03:17;;;;;;;17.55;10.38;;;18.30;75.30;;;;;;6245676;22;20016;-89
2022/04/14 19:05:43;;;;;;;5.95;2.92;;;18.20;76.00;;;;;;6273152;22;20493;-91
2022/04/14 19:08:14;;;;;;;4.45;2.60;;;18.10;78.60;;;;;;6273646;22;20082;-91
2022/04/14 19:10:41;;;;;;;4.22;2.65;;;18.00;79.40;;;;;;6273448;22;20010;-91
2022/04/14 19:13:08;;;;;;;7.63;4.65;;;17.90;81.20;;;;;;6273773;22;20028;-90